Time,TemperatureF,DewpointF,PressureIn,WindDirection,WindDirectionDegrees,WindSpeedMPH,WindSpeedGustMPH,Humidity,HourlyPrecipIn,Conditions,Clouds,dailyrainin,SolarRadiationWatts/m^2,SoftwareType,DateUTC
2013-08-28 10:44:00,95.0,58.0,-100.00,SE,129,9.0,16.0,29,0.00,,,0.01,699.000000,,2013-08-28 17:44:00,
2013-08-28 10:52:00,95.0,58.0,-100.00,SE,129,9.0,16.0,29,0.00,,,0.01,699.000000,,2013-08-28 17:52:00,
2013-08-28 11:02:00,95.0,58.0,-100.00,SE,129,9.0,16.0,29,0.00,,,0.01,699.000000,,2013-08-28 18:02:00,
2013-08-28 11:42:00,97.0,59.0,-100.00,East,94,7.0,18.0,29,0.00,,,0.00,821.000000,,2013-08-28 18:42:00,
2013-08-28 11:53:00,97.0,59.0,-100.00,East,94,7.0,18.0,29,0.00,,,0.00,821.000000,,2013-08-28 18:53:00,
2013-08-28 12:02:00,97.0,59.0,-100.00,East,94,7.0,18.0,29,0.00,,,0.00,821.000000,,2013-08-28 19:02:00,
2013-08-28 12:42:00,98.0,58.0,-100.00,ESE,122,8.0,17.0,27,0.00,,,0.00,916.000000,,2013-08-28 19:42:00,
2013-08-28 12:52:00,98.0,58.0,-100.00,ESE,122,8.0,17.0,27,0.00,,,0.00,916.000000,,2013-08-28 19:52:00,
2013-08-28 13:03:00,98.0,58.0,-100.00,ESE,122,8.0,17.0,27,0.00,,,0.00,916.000000,,2013-08-28 20:03:00,
2013-08-28 13:43:00,98.0,57.0,-100.00,ESE,122,9.0,18.0,26,0.00,,,0.00,919.000000,,2013-08-28 20:43:00,
2013-08-28 13:52:00,98.0,57.0,-100.00,ESE,122,9.0,18.0,26,0.00,,,0.00,919.000000,,2013-08-28 20:52:00,
2013-08-28 14:01:00,98.0,57.0,-100.00,ESE,122,9.0,18.0,26,0.00,,,0.00,919.000000,,2013-08-28 21:01:00,
2013-08-28 14:44:00,95.0,55.0,-100.00,ESE,111,11.0,18.0,26,0.00,,,0.00,645.000000,,2013-08-28 21:44:00,
2013-08-28 14:57:00,95.0,55.0,-100.00,ESE,111,11.0,18.0,26,0.00,,,0.00,645.000000,,2013-08-28 21:57:00,
2013-08-28 15:07:00,95.0,55.0,-100.00,ESE,111,11.0,18.0,26,0.00,,,0.00,645.000000,,2013-08-28 22:07:00,
2013-08-28 15:43:00,96.0,53.0,-100.00,East,95,10.0,20.0,24,0.00,,,0.00,565.000000,,2013-08-28 22:43:00,
2013-08-28 15:54:00,96.0,53.0,-100.00,East,95,10.0,20.0,24,0.00,,,0.00,565.000000,,2013-08-28 22:54:00,
2013-08-28 16:03:00,96.0,53.0,-100.00,East,95,10.0,20.0,24,0.00,,,0.00,565.000000,,2013-08-28 23:03:00,
2013-08-28 16:42:00,93.0,58.0,-100.00,ENE,68,11.0,21.0,31,0.00,,,0.00,431.000000,,2013-08-28 23:42:00,
2013-08-28 16:53:00,93.0,58.0,-100.00,ENE,68,11.0,21.0,31,0.00,,,0.00,431.000000,,2013-08-28 23:53:00,
2013-08-28 17:03:00,93.0,58.0,-100.00,ENE,68,11.0,21.0,31,0.00,,,0.00,431.000000,,2013-08-29 00:03:00,
2013-08-28 18:03:00,91.0,56.0,-100.00,ESE,110,11.0,20.0,31,0.00,,,0.00,196.000000,,2013-08-29 01:03:00,
2013-08-28 18:42:00,84.0,62.0,-100.00,WSW,247,6.0,15.0,48,0.00,,,0.00,69.000000,,2013-08-29 01:42:00,
2013-08-28 18:52:00,84.0,62.0,-100.00,WSW,247,6.0,15.0,48,0.00,,,0.00,69.000000,,2013-08-29 01:52:00,
2013-08-28 19:02:00,84.0,62.0,-100.00,WSW,247,6.0,15.0,48,0.00,,,0.00,69.000000,,2013-08-29 02:02:00,
2013-08-28 19:52:00,82.0,64.0,-100.00,ESE,120,2.0,7.0,55,0.00,,,0.00,13.000000,,2013-08-29 02:52:00,
2013-08-28 20:02:00,82.0,64.0,-100.00,ESE,120,2.0,7.0,55,0.00,,,0.00,13.000000,,2013-08-29 03:02:00,
2013-08-28 20:08:00,82.0,66.0,-100.00,SE,139,4.0,6.0,58,0.00,,,0.00,1.000000,,2013-08-29 03:08:00,
2013-08-28 20:45:00,82.0,66.0,-100.00,SE,139,4.0,6.0,58,0.00,,,0.00,1.000000,,2013-08-29 03:45:00,
2013-08-28 20:57:00,82.0,66.0,-100.00,SE,139,4.0,6.0,58,0.00,,,0.00,1.000000,,2013-08-29 03:57:00,
2013-08-28 21:46:00,80.0,64.0,-100.00,SSW,207,2.0,8.0,58,0.00,,,0.00,1.000000,,2013-08-29 04:46:00,
2013-08-28 21:54:00,80.0,64.0,-100.00,SSW,207,2.0,8.0,58,0.00,,,0.00,1.000000,,2013-08-29 04:54:00,
2013-08-28 22:05:00,80.0,64.0,-100.00,SSW,207,2.0,8.0,58,0.00,,,0.00,1.000000,,2013-08-29 05:05:00,
2013-08-28 22:42:00,80.0,66.0,-100.00,SW,224,1.0,3.0,63,0.00,,,0.00,1.000000,,2013-08-29 05:42:00,
2013-08-28 22:52:00,80.0,66.0,-100.00,SW,224,1.0,3.0,63,0.00,,,0.00,1.000000,,2013-08-29 05:52:00,
2013-08-28 23:02:00,80.0,66.0,-100.00,SW,224,1.0,3.0,63,0.00,,,0.00,1.000000,,2013-08-29 06:02:00,
2013-08-28 23:43:00,78.0,67.0,-100.00,West,277,1.0,4.0,68,0.00,,,-99.99,1.000000,,2013-08-29 06:43:00,
2013-08-28 23:52:00,78.0,67.0,-100.00,West,277,1.0,4.0,68,0.00,,,-99.99,1.000000,,2013-08-29 06:52:00,